Grass Valley, CA (95945)

9:50 PM PST on December 21, 2014 (GMT -0800)
Jones Ridge | Change Station
CLOSE
Current Station
Personal Weather Station
Location: Grass Valley, CA
Elevation: 3061 ft
Nearby Weather Stations

Elev 3061 ft 39.22 °N, 120.94 °W | Updated 21 seconds ago

Mostly Cloudy
Mostly Cloudy
51.4 °F
Feels Like 51.4 °F
N
0.0
Wind Variable Wind from WSW
Gusts 0.0 mph

Today
High -- | Low -- °F
--% Chance of Precip.
Yesterday
High -- | Low -- °F
Precip. -- in
7:19 AM 4:44 PM
New Moon, 0% visible
Pressure 30.28 in
Visibility 3.0 miles
Clouds Mostly Cloudy 4800 ft
Dew Point 50 °F
Humidity 95%
Rainfall 0.24 in
Snow Depth Not available.
UV 0 out of 12
Pollen 3.30 out of 12
Air Quality Not available.
Flu Activity Not available.
METAR KAUN 220535Z AUTO 00000KT 3SM BKN048 11/11 A3028 RMK AO1

More Conditions Fewer Conditions

Pressure 30.28 in
Visibility 3.0 miles
Clouds Mostly Cloudy 4800 ft
Dew Point 50 °F
Humidity 95%
Rainfall 0.24 in
Snow Depth Not available.
UV 0 out of 12
Pollen 3.30 out of 12
Air Quality Not available.
Flu Activity Not available.
METAR KAUN 220535Z AUTO 00000KT 3SM BKN048 11/11 A3028 RMK AO1

More Conditions Fewer Conditions

10-Day Weather Forecast

Almanac

Astronomy

Dec. 21, 2014 Rise Set
Actual Time
Civil Twilight
Nautical Twilight
Astronomical Twilight
Moon
Length of Visible Light
Length of Day
Tomorrow will be .
, % of the Moon is Illuminated

Today's Extremes

State Highs State Lows

Community

WunderPhotos

Upload Photos

1,779,549 photos uploaded!

WunderBlogs® & News

Nearby

Air Quality

  Air Quality AQ Index Pollutant
Not available.

Snow Depth

Station Depth Elevation

Earthquake Activity

City Distance Mag. Time & Date
Minimum magnitude displayed is 2.5.

Coastal Water Temperatures

Place Temperature

Nearby Weather Stations